createdAt,value
2019-03-12T00:02:17.689Z,5.10
2019-03-12T00:04:48.296Z,5.10
2019-03-12T00:07:18.845Z,5.10
2019-03-12T00:09:49.423Z,5.10
2019-03-12T00:12:22.152Z,5.10
2019-03-12T00:14:52.700Z,5.10
2019-03-12T00:17:23.266Z,5.00
2019-03-12T00:19:53.833Z,5.00
2019-03-12T00:22:24.356Z,5.00
2019-03-12T00:24:54.959Z,5.00
2019-03-12T00:27:25.506Z,5.00
2019-03-12T00:29:56.048Z,4.90
2019-03-12T00:32:26.624Z,4.90
2019-03-12T00:34:57.197Z,4.90
2019-03-12T00:37:27.777Z,4.90
2019-03-12T00:39:58.312Z,4.90
2019-03-12T00:42:28.886Z,4.90
2019-03-12T00:44:59.459Z,4.90
2019-03-12T00:47:30.015Z,4.80
2019-03-12T00:50:00.595Z,4.80
2019-03-12T00:52:31.150Z,4.80
2019-03-12T00:55:01.813Z,4.80
2019-03-12T00:57:32.456Z,4.70
2019-03-12T01:00:03.045Z,4.70
2019-03-12T01:02:33.595Z,4.70
2019-03-12T01:05:04.307Z,4.70
2019-03-12T01:07:34.939Z,4.70
2019-03-12T01:10:07.125Z,4.60
2019-03-12T01:12:37.726Z,4.60
2019-03-12T01:15:09.057Z,4.60
2019-03-12T01:17:39.599Z,4.60
2019-03-12T01:20:12.022Z,4.60
2019-03-12T01:22:42.623Z,4.60
2019-03-12T01:25:16.925Z,4.60
2019-03-12T01:27:47.451Z,4.60
2019-03-12T01:30:18.915Z,4.50
2019-03-12T01:32:49.448Z,4.50
2019-03-12T01:35:20.010Z,4.50
2019-03-12T01:37:50.592Z,4.50
2019-03-12T01:40:21.109Z,4.50
2019-03-12T01:42:52.623Z,4.40
2019-03-12T01:45:23.349Z,4.40
2019-03-12T01:47:53.886Z,4.40
2019-03-12T01:50:24.496Z,4.40
2019-03-12T01:52:56.144Z,4.40
2019-03-12T01:55:26.683Z,4.30
2019-03-12T01:57:57.332Z,4.30
2019-03-12T02:00:27.926Z,4.30
2019-03-12T02:02:58.570Z,4.30
2019-03-12T02:05:29.182Z,4.30
2019-03-12T02:07:59.921Z,4.20
2019-03-12T02:10:30.438Z,4.20
2019-03-12T02:13:01.047Z,4.20
2019-03-12T02:15:32.078Z,4.10
2019-03-12T02:18:02.625Z,4.10
2019-03-12T02:20:33.260Z,4.00
2019-03-12T02:23:03.957Z,4.00
2019-03-12T02:25:34.491Z,4.00
2019-03-12T02:28:05.369Z,3.90
2019-03-12T02:30:36.037Z,3.90
2019-03-12T02:33:06.765Z,3.90
2019-03-12T02:35:37.402Z,3.80
2019-03-12T02:38:07.945Z,3.80
2019-03-12T02:40:38.468Z,3.70
2019-03-12T02:43:09.016Z,3.70
2019-03-12T02:45:39.595Z,3.70
2019-03-12T02:48:10.152Z,3.60
2019-03-12T02:50:40.752Z,3.60
2019-03-12T02:53:11.361Z,3.60
2019-03-12T02:55:41.975Z,3.50
2019-03-12T02:58:12.507Z,3.50
2019-03-12T03:00:43.061Z,3.50
2019-03-12T03:03:13.611Z,3.50
2019-03-12T03:06:06.433Z,3.50
2019-03-12T03:08:37.026Z,3.50
2019-03-12T03:11:07.620Z,3.40
2019-03-12T03:13:38.209Z,3.40
2019-03-12T03:16:08.798Z,3.40
2019-03-12T03:18:39.328Z,3.40
2019-03-12T03:21:11.272Z,3.40
2019-03-12T03:23:41.843Z,3.40
2019-03-12T03:26:12.408Z,3.30
2019-03-12T03:28:42.949Z,3.30
2019-03-12T03:31:16.603Z,3.30
2019-03-12T03:33:48.253Z,3.30
2019-03-12T03:36:18.787Z,3.30
2019-03-12T03:38:49.362Z,3.30
2019-03-12T03:41:19.917Z,3.30
2019-03-12T03:43:50.762Z,3.30
2019-03-12T03:46:21.361Z,3.30
2019-03-12T03:48:51.969Z,3.30
2019-03-12T03:51:22.594Z,3.30
2019-03-12T03:53:53.179Z,3.30
2019-03-12T03:56:23.736Z,3.20
2019-03-12T03:58:54.319Z,3.20
2019-03-12T04:01:24.835Z,3.20
2019-03-12T04:03:55.389Z,3.20
2019-03-12T04:06:26.291Z,3.20
2019-03-12T04:08:56.959Z,3.20
2019-03-12T04:11:27.541Z,3.20
2019-03-12T04:13:58.125Z,3.10
2019-03-12T04:16:28.652Z,3.20
2019-03-12T04:18:59.266Z,3.10
2019-03-12T04:21:29.978Z,3.10
2019-03-12T04:24:00.579Z,3.10
2019-03-12T04:26:31.098Z,3.10
2019-03-12T04:29:01.679Z,3.10
2019-03-12T04:31:32.255Z,3.10
2019-03-12T04:34:15.906Z,3.10
2019-03-12T04:36:47.321Z,3.10
2019-03-12T04:39:17.889Z,3.10
2019-03-12T04:41:48.472Z,3.00
2019-03-12T04:44:19.054Z,3.00
2019-03-12T04:46:49.766Z,3.00
2019-03-12T04:49:20.289Z,3.00
2019-03-12T04:54:39.846Z,3.00
2019-03-12T04:57:10.643Z,3.00
2019-03-12T04:59:41.309Z,3.00
2019-03-12T05:02:17.898Z,3.00
2019-03-12T05:04:48.465Z,3.00
2019-03-12T05:07:18.992Z,3.00
2019-03-12T05:09:49.613Z,3.00
2019-03-12T05:12:20.204Z,3.00
2019-03-12T05:14:50.721Z,3.00
2019-03-12T05:17:30.106Z,3.00
2019-03-12T05:20:00.949Z,3.00
2019-03-12T05:22:31.488Z,3.00
2019-03-12T05:25:02.034Z,3.00
2019-03-12T05:27:32.743Z,3.00
2019-03-12T05:30:03.363Z,3.00
2019-03-12T05:32:34.023Z,3.00
2019-03-12T05:35:05.135Z,3.10
2019-03-12T05:37:35.680Z,3.00
2019-03-12T05:40:06.841Z,3.00
2019-03-12T05:42:37.348Z,3.00
2019-03-12T05:45:08.544Z,3.00
2019-03-12T05:47:39.090Z,3.00
2019-03-12T05:50:10.898Z,3.00
2019-03-12T05:52:41.417Z,3.00
2019-03-12T05:55:12.423Z,3.00
2019-03-12T05:57:43.170Z,3.00
2019-03-12T06:00:15.271Z,2.90
2019-03-12T06:02:45.844Z,2.90
2019-03-12T06:05:16.414Z,2.90
2019-03-12T06:07:47.215Z,2.90
2019-03-12T06:10:17.817Z,2.90
2019-03-12T06:12:48.354Z,2.90
2019-03-12T06:15:18.918Z,2.90
2019-03-12T06:17:49.467Z,3.00
2019-03-12T06:20:19.970Z,3.00
2019-03-12T06:22:50.532Z,3.00
2019-03-12T06:25:21.050Z,3.00
2019-03-12T06:27:51.617Z,3.00
2019-03-12T06:30:22.126Z,3.00
2019-03-12T06:33:07.472Z,3.10
2019-03-12T06:35:42.075Z,3.10
2019-03-12T06:38:25.308Z,3.10
2019-03-12T06:41:12.298Z,3.20
2019-03-12T06:43:51.605Z,3.20
2019-03-12T06:46:41.040Z,3.20
2019-03-12T06:49:23.940Z,3.20
2019-03-12T06:52:03.100Z,3.30
2019-03-12T06:54:46.293Z,3.30
2019-03-12T06:57:25.229Z,3.30
2019-03-12T07:00:02.913Z,3.40
2019-03-12T07:02:51.018Z,3.40
2019-03-12T07:05:40.480Z,3.50
2019-03-12T07:08:24.800Z,3.50
2019-03-12T07:11:20.342Z,3.60
2019-03-12T07:14:07.837Z,3.70
2019-03-12T07:17:06.360Z,3.70
2019-03-12T07:19:51.840Z,3.80
2019-03-12T07:22:50.289Z,3.80
2019-03-12T07:25:27.054Z,3.90
2019-03-12T07:28:16.528Z,3.90
2019-03-12T07:31:12.136Z,4.00
2019-03-12T07:34:09.099Z,4.00
2019-03-12T07:36:49.169Z,4.10
2019-03-12T07:39:37.275Z,4.10
2019-03-12T07:42:14.597Z,4.20
2019-03-12T07:45:10.076Z,4.20
2019-03-12T07:48:03.496Z,4.20
2019-03-12T07:50:52.964Z,4.30
2019-03-12T07:53:41.038Z,4.30
2019-03-12T07:56:33.245Z,4.40
2019-03-12T07:59:25.473Z,4.40
2019-03-12T08:02:24.015Z,4.40
2019-03-12T08:05:12.822Z,4.50
2019-03-12T08:07:52.843Z,4.50
2019-03-12T08:10:28.881Z,4.60
2019-03-12T08:13:24.299Z,4.60
2019-03-12T08:16:12.555Z,4.60
2019-03-12T08:19:08.262Z,4.70
2019-03-12T08:21:45.081Z,4.80
2019-03-12T08:24:43.327Z,4.80
2019-03-12T08:27:20.828Z,4.90
2019-03-12T08:30:09.008Z,4.90
2019-03-12T08:33:10.849Z,5.00
2019-03-12T08:36:00.350Z,5.00
2019-03-12T08:38:59.202Z,5.10
2019-03-12T08:42:03.762Z,5.10
2019-03-12T08:44:42.524Z,5.20
2019-03-12T08:47:19.476Z,5.20
2019-03-12T08:49:58.890Z,5.30
2019-03-12T08:52:42.373Z,5.30
2019-03-12T08:55:43.866Z,5.40
2019-03-12T08:58:39.233Z,5.40
2019-03-12T09:01:24.532Z,5.50
2019-03-12T09:04:08.841Z,5.60
2019-03-12T09:06:45.108Z,5.60
2019-03-12T09:09:28.351Z,5.70
2019-03-12T09:12:10.253Z,5.70
2019-03-12T09:15:01.470Z,5.80
2019-03-12T09:17:49.619Z,5.80
2019-03-12T09:20:36.247Z,5.80
2019-03-12T09:23:19.601Z,5.90
2019-03-12T09:26:08.801Z,5.90
2019-03-12T09:29:04.309Z,5.90
2019-03-12T09:31:39.855Z,6.00
2019-03-12T09:34:28.093Z,6.00
2019-03-12T09:37:17.503Z,6.10
2019-03-12T09:40:22.066Z,6.10
2019-03-12T09:43:21.201Z,6.10
2019-03-12T09:46:05.040Z,6.20
2019-03-12T09:48:57.086Z,6.20
2019-03-12T09:51:52.151Z,6.30
2019-03-12T09:54:41.590Z,6.30
2019-03-12T09:57:38.353Z,6.40
2019-03-12T10:00:29.553Z,6.40
2019-03-12T10:03:34.273Z,6.40
2019-03-12T10:06:22.583Z,6.50
2019-03-12T10:09:08.329Z,6.60
2019-03-12T10:11:56.679Z,6.60
2019-03-12T10:14:44.994Z,6.60
2019-03-12T10:17:35.751Z,6.70
2019-03-12T10:20:35.702Z,6.80
2019-03-12T10:23:19.029Z,6.80
2019-03-12T10:26:04.108Z,6.90
2019-03-12T10:29:05.592Z,7.00
2019-03-12T10:31:56.252Z,7.00
2019-03-12T10:34:48.494Z,7.10
2019-03-12T10:37:25.874Z,7.20
2019-03-12T10:40:33.081Z,7.20
2019-03-12T10:43:30.402Z,7.20
2019-03-12T10:46:19.884Z,7.30
2019-03-12T10:48:50.466Z,7.30
2019-03-12T10:51:21.031Z,7.40
2019-03-12T10:53:51.525Z,7.40
2019-03-12T10:56:23.068Z,7.50
2019-03-12T10:58:53.615Z,7.50
2019-03-12T11:01:24.240Z,7.50
2019-03-12T11:03:54.769Z,7.60
2019-03-12T11:06:25.625Z,7.60
2019-03-12T11:08:56.172Z,7.70
2019-03-12T11:11:26.789Z,7.70
2019-03-12T11:13:57.305Z,7.70
2019-03-12T11:16:27.811Z,7.80
2019-03-12T11:18:58.528Z,7.80
2019-03-12T11:21:29.078Z,7.90
2019-03-12T11:23:59.939Z,8.00
2019-03-12T11:26:30.670Z,8.00
2019-03-12T11:29:01.461Z,8.10
2019-03-12T11:31:32.003Z,8.10
2019-03-12T11:34:02.667Z,8.10
2019-03-12T11:36:33.197Z,8.20
2019-03-12T11:39:06.474Z,8.20
2019-03-12T11:41:37.051Z,8.30
2019-03-12T11:44:07.601Z,8.30
2019-03-12T11:46:44.481Z,8.40
2019-03-12T11:49:10.457Z,8.50
2019-03-12T11:51:40.987Z,8.50
2019-03-12T11:54:11.538Z,8.50
2019-03-12T11:56:42.123Z,8.60
2019-03-12T11:59:14.060Z,8.70
2019-03-12T12:01:44.577Z,8.70
2019-03-12T12:04:15.105Z,8.80
2019-03-12T12:06:45.715Z,8.80
2019-03-12T12:09:16.442Z,8.90
2019-03-12T12:11:47.011Z,8.90
2019-03-12T12:14:17.577Z,8.90
2019-03-12T12:16:48.119Z,9.00
2019-03-12T12:19:18.708Z,9.00
2019-03-12T12:21:49.289Z,9.00
2019-03-12T12:24:19.804Z,9.00
2019-03-12T12:26:50.405Z,9.00
2019-03-12T12:29:20.950Z,9.00
2019-03-12T12:31:51.559Z,9.00
2019-03-12T12:34:22.087Z,9.00
2019-03-12T12:36:52.647Z,9.10
2019-03-12T12:39:23.188Z,9.00
2019-03-12T12:41:53.757Z,9.10
2019-03-12T12:44:24.307Z,9.10
2019-03-12T12:46:54.888Z,9.10
2019-03-12T12:49:25.492Z,9.10
2019-03-12T12:51:56.048Z,9.10
2019-03-12T12:54:26.628Z,9.10
2019-03-12T12:56:57.252Z,9.10
2019-03-12T12:59:27.884Z,9.10
2019-03-12T13:01:58.723Z,9.10
2019-03-12T13:04:29.494Z,9.10
2019-03-12T13:07:06.064Z,9.10
2019-03-12T13:09:40.005Z,9.10
2019-03-12T13:12:10.785Z,9.10
2019-03-12T13:14:41.961Z,9.20
2019-03-12T15:37:06.641Z,9.30
2019-03-12T15:39:37.691Z,9.30
2019-03-12T15:42:12.698Z,9.30
2019-03-12T15:44:43.504Z,9.30
2019-03-12T15:47:14.531Z,9.20
2019-03-12T15:49:45.602Z,9.30
2019-03-12T15:52:16.429Z,9.20
2019-03-12T15:54:53.255Z,9.20
2019-03-12T15:57:23.924Z,9.20
2019-03-12T15:59:54.671Z,9.20
2019-03-12T16:02:25.535Z,9.20
2019-03-12T16:04:56.389Z,9.20
2019-03-12T16:07:28.160Z,9.20
2019-03-12T16:09:58.839Z,9.10
2019-03-12T16:12:29.485Z,9.20
2019-03-12T16:15:00.270Z,9.10
2019-03-12T16:17:31.240Z,9.10
2019-03-12T16:20:02.303Z,9.10
2019-03-12T16:22:33.066Z,9.10
2019-03-12T16:25:18.205Z,9.10
2019-03-12T16:27:48.824Z,9.10
2019-03-12T16:30:19.425Z,9.00
2019-03-12T16:32:50.059Z,9.00
2019-03-12T16:35:20.722Z,9.00
2019-03-12T16:37:51.182Z,9.00
2019-03-12T16:40:21.876Z,9.00
2019-03-12T16:42:52.397Z,9.00
2019-03-12T16:45:22.875Z,9.00
2019-03-12T16:47:53.426Z,9.00
2019-03-12T16:50:23.976Z,9.00
2019-03-12T16:52:54.545Z,9.00
2019-03-12T16:55:25.112Z,9.00
2019-03-12T16:57:55.679Z,9.00
2019-03-12T17:00:26.356Z,9.00
2019-03-12T17:02:56.917Z,9.00
2019-03-12T17:05:27.465Z,9.10
2019-03-12T17:07:58.047Z,9.10
2019-03-12T17:10:28.665Z,9.10
2019-03-12T17:12:59.283Z,9.10
2019-03-12T17:15:30.741Z,9.00
2019-03-12T17:18:01.980Z,9.10
2019-03-12T17:20:32.727Z,9.10
2019-03-12T17:23:03.394Z,9.10
2019-03-12T17:25:34.047Z,9.00
2019-03-12T17:28:04.723Z,9.10
2019-03-12T17:30:35.366Z,9.10
2019-03-12T17:33:06.901Z,9.00
2019-03-12T17:35:40.780Z,9.10
2019-03-12T17:38:11.297Z,9.10
2019-03-12T17:40:41.859Z,9.00
2019-03-12T17:43:12.381Z,9.10
2019-03-12T17:45:42.961Z,9.10
2019-03-12T17:48:13.511Z,9.10
2019-03-12T17:50:44.062Z,9.10
2019-03-12T17:53:14.605Z,9.10
2019-03-12T17:55:45.351Z,9.10
2019-03-12T17:58:17.059Z,9.10
2019-03-12T18:00:47.621Z,9.10
2019-03-12T18:03:18.280Z,9.00
2019-03-12T18:05:48.918Z,9.10
2019-03-12T18:08:19.607Z,9.10
2019-03-12T18:10:50.178Z,9.10
2019-03-12T18:13:20.729Z,9.10
2019-03-12T18:15:51.323Z,9.20
2019-03-12T18:18:21.843Z,9.20
2019-03-12T18:20:52.453Z,9.20
2019-03-12T18:23:23.067Z,9.20
2019-03-12T18:25:53.619Z,9.20
2019-03-12T18:28:24.161Z,9.20
2019-03-12T18:30:54.780Z,9.20
2019-03-12T18:33:25.316Z,9.20
2019-03-12T18:35:55.897Z,9.20
2019-03-12T18:38:26.416Z,9.20
2019-03-12T18:40:57.152Z,9.20
2019-03-12T18:43:27.701Z,9.20
2019-03-12T18:45:58.297Z,9.20
2019-03-12T18:48:29.146Z,9.20
2019-03-12T18:50:59.857Z,9.20
2019-03-12T18:53:31.463Z,9.20
2019-03-12T18:56:07.560Z,9.20
2019-03-12T18:58:38.086Z,9.20
2019-03-12T19:01:16.383Z,9.20
2019-03-12T19:03:47.013Z,9.20
2019-03-12T19:06:17.637Z,9.30
2019-03-12T19:08:48.424Z,9.20
2019-03-12T19:11:19.396Z,9.20
2019-03-12T19:13:49.904Z,9.30
2019-03-12T19:16:20.482Z,9.20
2019-03-12T19:18:51.020Z,9.20
2019-03-12T19:21:23.609Z,9.30
2019-03-12T19:23:54.176Z,9.30
2019-03-12T19:26:24.895Z,9.30
2019-03-12T19:28:55.436Z,9.30
2019-03-12T19:31:53.748Z,9.30
2019-03-12T19:34:35.925Z,9.30
2019-03-12T19:37:06.585Z,9.30
2019-03-12T19:39:37.807Z,9.30
2019-03-12T19:42:08.404Z,9.30
2019-03-12T19:44:38.935Z,9.40
2019-03-12T19:47:09.488Z,9.40
2019-03-12T19:49:43.524Z,9.40
2019-03-12T19:52:14.162Z,9.30
2019-03-12T19:54:44.824Z,9.30
2019-03-12T19:57:15.607Z,9.30
2019-03-12T19:59:46.531Z,9.30
2019-03-12T20:02:18.880Z,9.30
2019-03-12T20:04:49.438Z,9.30
2019-03-12T20:07:20.095Z,9.30
2019-03-12T20:11:04.830Z,9.30
2019-03-12T20:15:12.813Z,9.30
2019-03-12T20:18:24.566Z,9.30
2019-03-12T20:22:09.331Z,9.20
2019-03-12T20:26:09.499Z,9.20
2019-03-12T20:29:29.375Z,9.10
2019-03-12T20:33:03.651Z,9.10
2019-03-12T20:36:45.239Z,9.00
2019-03-12T20:40:23.662Z,9.00
2019-03-12T20:44:05.301Z,8.90
2019-03-12T20:47:53.198Z,8.80
2019-03-12T20:51:25.742Z,8.80
2019-03-12T20:55:17.633Z,8.70
2019-03-12T20:58:48.110Z,8.60
2019-03-12T21:02:25.641Z,8.50
2019-03-12T21:05:56.490Z,8.50
2019-03-12T21:09:33.050Z,8.40
2019-03-12T21:13:26.607Z,8.40
2019-03-12T21:16:41.404Z,8.40
2019-03-12T21:20:33.121Z,8.30
2019-03-12T21:24:15.739Z,8.30
2019-03-12T21:27:29.405Z,8.30
2019-03-12T21:29:57.406Z,8.30
2019-03-12T21:32:28.114Z,8.40
2019-03-12T21:34:58.794Z,8.40
2019-03-12T21:37:29.478Z,8.40
2019-03-12T21:40:00.029Z,8.40
2019-03-12T21:42:32.898Z,8.40
2019-03-12T21:45:03.518Z,8.20
2019-03-12T21:47:34.146Z,8.10
2019-03-12T21:50:05.042Z,8.00
2019-03-12T21:52:35.603Z,7.90
2019-03-12T21:55:07.780Z,7.80
2019-03-12T21:57:38.348Z,7.70
2019-03-12T22:00:13.708Z,7.60
2019-03-12T22:02:44.345Z,7.50
2019-03-12T22:05:14.851Z,7.40
2019-03-12T22:07:45.614Z,7.30
2019-03-12T22:10:16.113Z,7.20
2019-03-12T22:12:46.774Z,7.10
2019-03-12T22:15:17.323Z,7.10
2019-03-12T22:17:48.915Z,7.00
2019-03-12T22:20:19.470Z,7.00
2019-03-12T22:22:58.210Z,6.90
2019-03-12T22:25:28.857Z,6.80
2019-03-12T22:27:59.449Z,6.70
2019-03-12T22:30:30.006Z,6.70
2019-03-12T22:33:01.748Z,6.70
2019-03-12T22:35:32.419Z,6.60
2019-03-12T22:38:02.947Z,6.60
2019-03-12T22:40:33.504Z,6.60
2019-03-12T22:43:04.038Z,6.50
2019-03-12T22:45:34.591Z,6.50
2019-03-12T22:48:05.133Z,6.50
2019-03-12T22:50:35.706Z,6.50
2019-03-12T22:53:06.285Z,6.40
2019-03-12T22:55:36.826Z,6.40
2019-03-12T22:58:07.344Z,6.40
2019-03-12T23:00:41.339Z,6.30
2019-03-12T23:03:11.886Z,6.30
2019-03-12T23:05:42.516Z,6.30
2019-03-12T23:08:13.247Z,6.30
2019-03-12T23:10:43.804Z,6.30
2019-03-12T23:13:14.398Z,6.20
2019-03-12T23:15:44.995Z,6.20
2019-03-12T23:18:15.565Z,6.20
2019-03-12T23:20:46.333Z,6.20
2019-03-12T23:23:16.892Z,6.20
2019-03-12T23:25:47.434Z,6.20
2019-03-12T23:28:17.997Z,6.20
2019-03-12T23:30:48.666Z,6.20
2019-03-12T23:33:19.242Z,6.20
2019-03-12T23:35:49.788Z,6.10
2019-03-12T23:38:20.353Z,6.10
2019-03-12T23:40:50.869Z,6.10
2019-03-12T23:43:21.380Z,6.10
2019-03-12T23:45:51.962Z,6.00
2019-03-12T23:48:22.612Z,6.00
2019-03-12T23:50:53.260Z,6.00
2019-03-12T23:53:23.790Z,6.00
2019-03-12T23:55:54.450Z,6.00
2019-03-12T23:58:31.102Z,5.90
